Terminal Aerodrome Forecast
Issued by NWS Austin/San Antonio, TX

Home | Current Version | Previous Version | Text Only | Print | Product List | Glossary On
Versions: 1 2 3 4 5 6 7 8 9 10 11 12 13 14 15 16 17 18 19 20 21
000
FTUS44 KEWX 192320
TAFAUS
TAF
KAUS 192320Z 2000/2106 17015G25KT P6SM BKN040
     FM200300 17012KT 5SM BR OVC015
     FM201100 17012KT 5SM -RA BR VCTS OVC007CB
     FM201700 17014KT P6SM VCSH OVC015
     FM202200 18017KT 5SM -SHRA OVC035=

USA.gov is the U.S. government's official web portal to all federal, state and local government web resources and services.